sensor_id;sensor_type;location;lat;lon;timestamp;temperature;humidity
15777;DHT22;7989;51.198;6.676;2022-07-29T00:01:33;20.70;99.90
15777;DHT22;7989;51.198;6.676;2022-07-29T00:04:01;20.70;99.90
15777;DHT22;7989;51.198;6.676;2022-07-29T00:06:28;20.70;99.90
15777;DHT22;7989;51.198;6.676;2022-07-29T00:08:54;20.70;99.90
15777;DHT22;7989;51.198;6.676;2022-07-29T00:11:21;20.70;99.90
15777;DHT22;7989;51.198;6.676;2022-07-29T00:13:48;20.70;99.90
15777;DHT22;7989;51.198;6.676;2022-07-29T00:16:15;20.70;99.90
15777;DHT22;7989;51.198;6.676;2022-07-29T00:18:42;20.70;99.90
15777;DHT22;7989;51.198;6.676;2022-07-29T00:21:10;20.60;99.90
15777;DHT22;7989;51.198;6.676;2022-07-29T00:23:37;20.60;99.90
15777;DHT22;7989;51.198;6.676;2022-07-29T00:26:03;20.60;99.90
15777;DHT22;7989;51.198;6.676;2022-07-29T00:28:30;20.60;99.90
15777;DHT22;7989;51.198;6.676;2022-07-29T00:30:57;20.60;99.90
15777;DHT22;7989;51.198;6.676;2022-07-29T00:33:24;20.60;99.90
15777;DHT22;7989;51.198;6.676;2022-07-29T00:35:51;20.60;99.90
15777;DHT22;7989;51.198;6.676;2022-07-29T00:38:19;20.60;99.90
15777;DHT22;7989;51.198;6.676;2022-07-29T00:40:47;20.60;99.90
15777;DHT22;7989;51.198;6.676;2022-07-29T00:43:14;20.50;99.90
15777;DHT22;7989;51.198;6.676;2022-07-29T00:45:41;20.60;99.90
15777;DHT22;7989;51.198;6.676;2022-07-29T00:48:08;20.60;99.90
15777;DHT22;7989;51.198;6.676;2022-07-29T00:50:36;20.60;99.90
15777;DHT22;7989;51.198;6.676;2022-07-29T00:53:03;20.60;99.90
15777;DHT22;7989;51.198;6.676;2022-07-29T00:55:32;20.60;99.90
15777;DHT22;7989;51.198;6.676;2022-07-29T00:57:59;20.60;99.90
15777;DHT22;7989;51.198;6.676;2022-07-29T01:00:27;20.60;99.90
15777;DHT22;7989;51.198;6.676;2022-07-29T01:02:54;20.50;99.90
15777;DHT22;7989;51.198;6.676;2022-07-29T01:05:24;20.50;99.90
15777;DHT22;7989;51.198;6.676;2022-07-29T01:07:53;20.50;99.90
15777;DHT22;7989;51.198;6.676;2022-07-29T01:10:21;20.50;99.90
15777;DHT22;7989;51.198;6.676;2022-07-29T01:12:51;20.40;99.90
15777;DHT22;7989;51.198;6.676;2022-07-29T01:15:19;20.40;99.90
15777;DHT22;7989;51.198;6.676;2022-07-29T01:17:52;20.40;99.90
15777;DHT22;7989;51.198;6.676;2022-07-29T01:20:25;20.30;99.90
15777;DHT22;7989;51.198;6.676;2022-07-29T01:23:21;20.30;99.90
15777;DHT22;7989;51.198;6.676;2022-07-29T01:26:21;20.30;99.90
15777;DHT22;7989;51.198;6.676;2022-07-29T01:28:58;20.40;99.90
15777;DHT22;7989;51.198;6.676;2022-07-29T01:31:31;20.50;99.90
15777;DHT22;7989;51.198;6.676;2022-07-29T01:34:03;20.60;99.90
15777;DHT22;7989;51.198;6.676;2022-07-29T01:36:35;20.60;99.90
15777;DHT22;7989;51.198;6.676;2022-07-29T01:39:07;20.50;99.90
15777;DHT22;7989;51.198;6.676;2022-07-29T01:41:37;20.60;99.90
15777;DHT22;7989;51.198;6.676;2022-07-29T01:44:12;20.60;99.90
15777;DHT22;7989;51.198;6.676;2022-07-29T01:46:46;20.50;99.90
15777;DHT22;7989;51.198;6.676;2022-07-29T01:49:18;20.30;99.90
15777;DHT22;7989;51.198;6.676;2022-07-29T01:51:50;20.20;99.90
15777;DHT22;7989;51.198;6.676;2022-07-29T01:54:21;20.20;99.90
15777;DHT22;7989;51.198;6.676;2022-07-29T01:56:54;20.30;99.90
15777;DHT22;7989;51.198;6.676;2022-07-29T01:59:23;20.40;99.90
15777;DHT22;7989;51.198;6.676;2022-07-29T02:01:54;20.40;99.90
15777;DHT22;7989;51.198;6.676;2022-07-29T02:04:21;20.40;99.90
15777;DHT22;7989;51.198;6.676;2022-07-29T02:06:51;20.30;99.90
15777;DHT22;7989;51.198;6.676;2022-07-29T02:09:19;20.40;99.90
15777;DHT22;7989;51.198;6.676;2022-07-29T02:11:49;20.30;99.90
15777;DHT22;7989;51.198;6.676;2022-07-29T02:14:18;20.20;99.90
15777;DHT22;7989;51.198;6.676;2022-07-29T02:16:47;20.20;99.90
15777;DHT22;7989;51.198;6.676;2022-07-29T02:19:17;20.20;99.90
15777;DHT22;7989;51.198;6.676;2022-07-29T02:21:46;20.20;99.90
15777;DHT22;7989;51.198;6.676;2022-07-29T02:24:14;20.00;99.90
15777;DHT22;7989;51.198;6.676;2022-07-29T02:26:43;19.90;99.90
15777;DHT22;7989;51.198;6.676;2022-07-29T02:29:11;19.90;99.90
15777;DHT22;7989;51.198;6.676;2022-07-29T02:31:39;19.90;99.90
15777;DHT22;7989;51.198;6.676;2022-07-29T02:34:10;19.90;99.90
15777;DHT22;7989;51.198;6.676;2022-07-29T02:36:38;19.90;99.90
15777;DHT22;7989;51.198;6.676;2022-07-29T02:39:07;19.70;99.90
15777;DHT22;7989;51.198;6.676;2022-07-29T02:41:40;19.60;99.90
15777;DHT22;7989;51.198;6.676;2022-07-29T02:44:10;19.60;99.90
15777;DHT22;7989;51.198;6.676;2022-07-29T02:46:43;19.60;99.90
15777;DHT22;7989;51.198;6.676;2022-07-29T02:49:16;19.70;99.90
15777;DHT22;7989;51.198;6.676;2022-07-29T02:51:46;19.70;99.90
15777;DHT22;7989;51.198;6.676;2022-07-29T02:54:22;19.70;99.90
15777;DHT22;7989;51.198;6.676;2022-07-29T02:56:49;19.60;99.90
15777;DHT22;7989;51.198;6.676;2022-07-29T02:59:22;19.50;99.90
15777;DHT22;7989;51.198;6.676;2022-07-29T03:01:51;19.50;99.90
15777;DHT22;7989;51.198;6.676;2022-07-29T03:04:21;19.60;99.90
15777;DHT22;7989;51.198;6.676;2022-07-29T03:06:49;19.60;99.90
15777;DHT22;7989;51.198;6.676;2022-07-29T03:09:17;19.60;99.90
15777;DHT22;7989;51.198;6.676;2022-07-29T03:11:45;19.70;99.90
15777;DHT22;7989;51.198;6.676;2022-07-29T03:14:12;19.70;99.90
15777;DHT22;7989;51.198;6.676;2022-07-29T03:16:39;19.60;99.90
15777;DHT22;7989;51.198;6.676;2022-07-29T03:19:06;19.60;99.90
15777;DHT22;7989;51.198;6.676;2022-07-29T03:21:35;19.60;99.90
15777;DHT22;7989;51.198;6.676;2022-07-29T03:24:02;19.60;99.90
15777;DHT22;7989;51.198;6.676;2022-07-29T03:26:29;19.50;99.90
15777;DHT22;7989;51.198;6.676;2022-07-29T03:28:55;19.30;99.90
15777;DHT22;7989;51.198;6.676;2022-07-29T03:31:22;18.90;99.90
15777;DHT22;7989;51.198;6.676;2022-07-29T03:33:49;18.60;99.90
15777;DHT22;7989;51.198;6.676;2022-07-29T03:36:16;18.50;99.90
15777;DHT22;7989;51.198;6.676;2022-07-29T03:38:44;18.20;99.90
15777;DHT22;7989;51.198;6.676;2022-07-29T03:41:13;18.10;99.90
15777;DHT22;7989;51.198;6.676;2022-07-29T03:43:41;17.90;99.90
15777;DHT22;7989;51.198;6.676;2022-07-29T03:46:10;17.40;99.90
15777;DHT22;7989;51.198;6.676;2022-07-29T03:48:42;16.80;99.90
15777;DHT22;7989;51.198;6.676;2022-07-29T03:51:10;16.50;99.90
15777;DHT22;7989;51.198;6.676;2022-07-29T03:53:37;16.30;99.90
15777;DHT22;7989;51.198;6.676;2022-07-29T03:56:06;16.40;99.90
15777;DHT22;7989;51.198;6.676;2022-07-29T03:58:35;16.40;99.90
15777;DHT22;7989;51.198;6.676;2022-07-29T04:01:03;16.20;99.90
15777;DHT22;7989;51.198;6.676;2022-07-29T04:03:30;16.20;99.90
15777;DHT22;7989;51.198;6.676;2022-07-29T04:06:02;16.20;99.90
15777;DHT22;7989;51.198;6.676;2022-07-29T04:08:31;16.20;99.90
15777;DHT22;7989;51.198;6.676;2022-07-29T04:10:58;16.20;99.90
15777;DHT22;7989;51.198;6.676;2022-07-29T04:13:26;16.20;99.90
15777;DHT22;7989;51.198;6.676;2022-07-29T04:15:53;16.20;99.90
15777;DHT22;7989;51.198;6.676;2022-07-29T04:18:20;16.30;99.90
15777;DHT22;7989;51.198;6.676;2022-07-29T04:20:47;16.40;99.90
15777;DHT22;7989;51.198;6.676;2022-07-29T04:23:14;16.50;99.90
15777;DHT22;7989;51.198;6.676;2022-07-29T04:25:41;16.70;99.90
15777;DHT22;7989;51.198;6.676;2022-07-29T04:28:09;16.80;99.90
15777;DHT22;7989;51.198;6.676;2022-07-29T04:30:37;16.80;99.90
15777;DHT22;7989;51.198;6.676;2022-07-29T04:33:06;16.90;99.90
15777;DHT22;7989;51.198;6.676;2022-07-29T04:35:35;16.90;99.90
15777;DHT22;7989;51.198;6.676;2022-07-29T04:38:03;17.20;99.90
15777;DHT22;7989;51.198;6.676;2022-07-29T04:40:30;17.10;99.90
15777;DHT22;7989;51.198;6.676;2022-07-29T04:42:59;17.00;99.90
15777;DHT22;7989;51.198;6.676;2022-07-29T04:45:26;16.90;99.90
15777;DHT22;7989;51.198;6.676;2022-07-29T04:47:54;16.80;99.90
15777;DHT22;7989;51.198;6.676;2022-07-29T04:50:21;16.70;99.90
15777;DHT22;7989;51.198;6.676;2022-07-29T04:52:47;16.70;99.90
15777;DHT22;7989;51.198;6.676;2022-07-29T04:55:14;16.70;99.90
15777;DHT22;7989;51.198;6.676;2022-07-29T04:57:41;16.70;99.90
15777;DHT22;7989;51.198;6.676;2022-07-29T05:00:09;16.60;99.90
15777;DHT22;7989;51.198;6.676;2022-07-29T05:02:36;16.60;99.90
15777;DHT22;7989;51.198;6.676;2022-07-29T05:05:05;16.70;99.90
15777;DHT22;7989;51.198;6.676;2022-07-29T05:07:31;16.70;99.90
15777;DHT22;7989;51.198;6.676;2022-07-29T05:09:58;16.80;99.90
15777;DHT22;7989;51.198;6.676;2022-07-29T05:12:25;16.90;99.90
15777;DHT22;7989;51.198;6.676;2022-07-29T05:14:53;16.80;99.90
15777;DHT22;7989;51.198;6.676;2022-07-29T05:17:20;16.90;99.90
15777;DHT22;7989;51.198;6.676;2022-07-29T05:19:47;17.00;99.90
15777;DHT22;7989;51.198;6.676;2022-07-29T05:22:15;17.10;99.90
15777;DHT22;7989;51.198;6.676;2022-07-29T05:24:42;17.20;99.90
15777;DHT22;7989;51.198;6.676;2022-07-29T05:27:08;17.30;99.90
15777;DHT22;7989;51.198;6.676;2022-07-29T05:29:35;17.40;99.90
15777;DHT22;7989;51.198;6.676;2022-07-29T05:32:03;17.50;99.90
15777;DHT22;7989;51.198;6.676;2022-07-29T05:34:30;17.50;99.90
15777;DHT22;7989;51.198;6.676;2022-07-29T05:36:57;17.50;99.90
15777;DHT22;7989;51.198;6.676;2022-07-29T05:39:25;17.50;99.90
15777;DHT22;7989;51.198;6.676;2022-07-29T05:41:52;17.60;99.90
15777;DHT22;7989;51.198;6.676;2022-07-29T05:44:19;17.70;99.90
15777;DHT22;7989;51.198;6.676;2022-07-29T05:46:46;17.70;99.90
15777;DHT22;7989;51.198;6.676;2022-07-29T05:49:12;17.80;99.90
15777;DHT22;7989;51.198;6.676;2022-07-29T05:51:39;18.00;99.90
15777;DHT22;7989;51.198;6.676;2022-07-29T05:54:06;18.10;99.90
15777;DHT22;7989;51.198;6.676;2022-07-29T05:56:35;18.00;99.90
15777;DHT22;7989;51.198;6.676;2022-07-29T05:59:02;18.00;99.90
15777;DHT22;7989;51.198;6.676;2022-07-29T06:01:29;18.10;99.90
15777;DHT22;7989;51.198;6.676;2022-07-29T06:03:56;18.30;99.90
15777;DHT22;7989;51.198;6.676;2022-07-29T06:06:23;18.40;99.90
15777;DHT22;7989;51.198;6.676;2022-07-29T06:08:50;18.40;99.90
15777;DHT22;7989;51.198;6.676;2022-07-29T06:11:17;18.30;99.90
15777;DHT22;7989;51.198;6.676;2022-07-29T06:13:45;18.30;99.90
15777;DHT22;7989;51.198;6.676;2022-07-29T06:16:12;18.20;99.90
15777;DHT22;7989;51.198;6.676;2022-07-29T06:18:39;18.20;99.90
15777;DHT22;7989;51.198;6.676;2022-07-29T06:21:08;18.20;99.90
15777;DHT22;7989;51.198;6.676;2022-07-29T06:23:36;18.20;99.90
15777;DHT22;7989;51.198;6.676;2022-07-29T06:26:03;18.30;99.90
15777;DHT22;7989;51.198;6.676;2022-07-29T06:28:31;18.30;99.90
15777;DHT22;7989;51.198;6.676;2022-07-29T06:30:59;18.40;99.90
15777;DHT22;7989;51.198;6.676;2022-07-29T06:33:26;18.40;99.90
15777;DHT22;7989;51.198;6.676;2022-07-29T06:35:53;18.40;99.90
15777;DHT22;7989;51.198;6.676;2022-07-29T06:38:20;18.40;99.90
15777;DHT22;7989;51.198;6.676;2022-07-29T06:40:47;18.40;99.90
15777;DHT22;7989;51.198;6.676;2022-07-29T06:43:33;18.40;99.90
15777;DHT22;7989;51.198;6.676;2022-07-29T06:46:05;18.20;99.90
15777;DHT22;7989;51.198;6.676;2022-07-29T06:48:33;18.20;99.90
15777;DHT22;7989;51.198;6.676;2022-07-29T06:51:00;18.40;99.90
15777;DHT22;7989;51.198;6.676;2022-07-29T06:53:27;18.50;99.90
15777;DHT22;7989;51.198;6.676;2022-07-29T06:55:55;18.50;99.90
15777;DHT22;7989;51.198;6.676;2022-07-29T06:58:23;18.60;99.90
15777;DHT22;7989;51.198;6.676;2022-07-29T07:00:50;18.50;99.90
15777;DHT22;7989;51.198;6.676;2022-07-29T07:03:19;18.50;99.90
15777;DHT22;7989;51.198;6.676;2022-07-29T07:05:46;18.60;99.90
15777;DHT22;7989;51.198;6.676;2022-07-29T07:08:13;18.60;99.90
15777;DHT22;7989;51.198;6.676;2022-07-29T07:10:42;18.60;99.90
15777;DHT22;7989;51.198;6.676;2022-07-29T07:13:09;18.50;99.90
15777;DHT22;7989;51.198;6.676;2022-07-29T07:15:36;18.40;99.90
15777;DHT22;7989;51.198;6.676;2022-07-29T07:18:03;18.30;99.90
15777;DHT22;7989;51.198;6.676;2022-07-29T07:20:33;18.40;99.90
15777;DHT22;7989;51.198;6.676;2022-07-29T07:22:59;18.20;99.90
15777;DHT22;7989;51.198;6.676;2022-07-29T07:25:26;18.30;99.90
15777;DHT22;7989;51.198;6.676;2022-07-29T07:27:53;18.20;99.90
15777;DHT22;7989;51.198;6.676;2022-07-29T07:30:20;18.20;99.90
15777;DHT22;7989;51.198;6.676;2022-07-29T07:32:47;18.40;99.90
15777;DHT22;7989;51.198;6.676;2022-07-29T07:35:14;18.40;99.90
15777;DHT22;7989;51.198;6.676;2022-07-29T07:37:42;18.40;99.90
15777;DHT22;7989;51.198;6.676;2022-07-29T07:40:10;18.50;99.90
15777;DHT22;7989;51.198;6.676;2022-07-29T07:42:38;18.40;99.90
15777;DHT22;7989;51.198;6.676;2022-07-29T07:45:05;18.30;99.90
15777;DHT22;7989;51.198;6.676;2022-07-29T07:47:34;18.50;99.90
15777;DHT22;7989;51.198;6.676;2022-07-29T07:50:02;18.60;99.90
15777;DHT22;7989;51.198;6.676;2022-07-29T07:52:29;18.60;99.90
15777;DHT22;7989;51.198;6.676;2022-07-29T07:54:57;18.40;99.90
15777;DHT22;7989;51.198;6.676;2022-07-29T07:57:24;18.30;99.90
15777;DHT22;7989;51.198;6.676;2022-07-29T07:59:51;18.30;99.90
15777;DHT22;7989;51.198;6.676;2022-07-29T08:02:18;18.00;99.90
15777;DHT22;7989;51.198;6.676;2022-07-29T08:04:44;17.90;99.90
15777;DHT22;7989;51.198;6.676;2022-07-29T08:07:11;17.80;99.90
15777;DHT22;7989;51.198;6.676;2022-07-29T08:09:40;17.70;99.90
15777;DHT22;7989;51.198;6.676;2022-07-29T08:12:08;17.70;99.90
15777;DHT22;7989;51.198;6.676;2022-07-29T08:14:35;17.70;99.90
15777;DHT22;7989;51.198;6.676;2022-07-29T08:17:02;17.70;99.90
15777;DHT22;7989;51.198;6.676;2022-07-29T08:19:29;17.70;99.90
15777;DHT22;7989;51.198;6.676;2022-07-29T08:21:56;17.80;99.90
15777;DHT22;7989;51.198;6.676;2022-07-29T08:24:23;17.90;99.90
15777;DHT22;7989;51.198;6.676;2022-07-29T08:27:09;18.00;99.90
15777;DHT22;7989;51.198;6.676;2022-07-29T08:29:36;18.10;99.90
15777;DHT22;7989;51.198;6.676;2022-07-29T08:32:03;18.20;99.90
15777;DHT22;7989;51.198;6.676;2022-07-29T08:34:31;18.20;99.90
15777;DHT22;7989;51.198;6.676;2022-07-29T08:36:58;18.30;99.90
15777;DHT22;7989;51.198;6.676;2022-07-29T08:39:25;18.30;99.90
15777;DHT22;7989;51.198;6.676;2022-07-29T08:41:52;18.20;99.90
15777;DHT22;7989;51.198;6.676;2022-07-29T08:44:21;18.30;99.90
15777;DHT22;7989;51.198;6.676;2022-07-29T08:46:49;18.40;99.90
15777;DHT22;7989;51.198;6.676;2022-07-29T08:49:16;18.50;99.90
15777;DHT22;7989;51.198;6.676;2022-07-29T08:51:44;18.50;99.90
15777;DHT22;7989;51.198;6.676;2022-07-29T08:54:11;18.60;99.90
15777;DHT22;7989;51.198;6.676;2022-07-29T08:56:43;18.70;99.90
15777;DHT22;7989;51.198;6.676;2022-07-29T08:59:11;18.90;99.90
15777;DHT22;7989;51.198;6.676;2022-07-29T09:01:43;19.10;99.90
15777;DHT22;7989;51.198;6.676;2022-07-29T09:04:12;19.30;99.90
15777;DHT22;7989;51.198;6.676;2022-07-29T09:06:43;19.30;99.90
15777;DHT22;7989;51.198;6.676;2022-07-29T09:09:11;19.50;99.90
15777;DHT22;7989;51.198;6.676;2022-07-29T09:11:39;19.50;99.90
15777;DHT22;7989;51.198;6.676;2022-07-29T09:14:06;19.60;99.90
15777;DHT22;7989;51.198;6.676;2022-07-29T09:16:46;19.40;99.90
15777;DHT22;7989;51.198;6.676;2022-07-29T09:19:20;19.40;99.90
15777;DHT22;7989;51.198;6.676;2022-07-29T09:21:47;19.70;99.90
15777;DHT22;7989;51.198;6.676;2022-07-29T09:24:41;19.80;99.90
15777;DHT22;7989;51.198;6.676;2022-07-29T09:27:11;19.90;99.90
15777;DHT22;7989;51.198;6.676;2022-07-29T09:29:38;20.00;99.90
15777;DHT22;7989;51.198;6.676;2022-07-29T09:32:09;19.90;99.90
15777;DHT22;7989;51.198;6.676;2022-07-29T09:34:36;20.00;99.90
15777;DHT22;7989;51.198;6.676;2022-07-29T09:37:04;20.00;99.90
15777;DHT22;7989;51.198;6.676;2022-07-29T09:39:33;20.00;99.90
15777;DHT22;7989;51.198;6.676;2022-07-29T09:42:01;20.30;99.90
15777;DHT22;7989;51.198;6.676;2022-07-29T09:44:42;20.40;99.90
15777;DHT22;7989;51.198;6.676;2022-07-29T09:47:10;20.20;99.90
15777;DHT22;7989;51.198;6.676;2022-07-29T09:49:51;20.00;99.90
15777;DHT22;7989;51.198;6.676;2022-07-29T09:52:18;20.10;99.90
15777;DHT22;7989;51.198;6.676;2022-07-29T09:54:45;20.20;99.90
15777;DHT22;7989;51.198;6.676;2022-07-29T09:57:24;20.30;99.90
15777;DHT22;7989;51.198;6.676;2022-07-29T10:00:03;20.50;99.90
15777;DHT22;7989;51.198;6.676;2022-07-29T10:02:34;21.00;99.90
15777;DHT22;7989;51.198;6.676;2022-07-29T10:05:03;21.70;99.90
15777;DHT22;7989;51.198;6.676;2022-07-29T10:07:44;22.80;99.90
15777;DHT22;7989;51.198;6.676;2022-07-29T10:10:17;23.70;99.90
15777;DHT22;7989;51.198;6.676;2022-07-29T10:12:55;23.90;99.90
15777;DHT22;7989;51.198;6.676;2022-07-29T10:15:24;23.50;99.90
15777;DHT22;7989;51.198;6.676;2022-07-29T10:17:54;23.40;99.90
15777;DHT22;7989;51.198;6.676;2022-07-29T10:20:22;23.20;99.90
15777;DHT22;7989;51.198;6.676;2022-07-29T10:22:51;22.90;99.90
15777;DHT22;7989;51.198;6.676;2022-07-29T10:25:19;22.70;99.90
15777;DHT22;7989;51.198;6.676;2022-07-29T10:27:47;22.70;99.90
15777;DHT22;7989;51.198;6.676;2022-07-29T10:30:17;22.70;99.90
15777;DHT22;7989;51.198;6.676;2022-07-29T10:33:15;22.70;99.90
15777;DHT22;7989;51.198;6.676;2022-07-29T10:35:54;22.60;99.90
15777;DHT22;7989;51.198;6.676;2022-07-29T10:38:36;22.60;99.90
15777;DHT22;7989;51.198;6.676;2022-07-29T10:41:17;22.20;99.90
15777;DHT22;7989;51.198;6.676;2022-07-29T10:43:58;22.00;99.90
15777;DHT22;7989;51.198;6.676;2022-07-29T10:46:26;22.20;99.90
15777;DHT22;7989;51.198;6.676;2022-07-29T10:49:11;22.20;99.90
15777;DHT22;7989;51.198;6.676;2022-07-29T10:51:57;22.20;99.90
15777;DHT22;7989;51.198;6.676;2022-07-29T10:54:43;22.30;99.90
15777;DHT22;7989;51.198;6.676;2022-07-29T10:57:17;22.40;99.90
15777;DHT22;7989;51.198;6.676;2022-07-29T10:59:46;22.40;99.90
15777;DHT22;7989;51.198;6.676;2022-07-29T11:02:41;22.40;99.90
15777;DHT22;7989;51.198;6.676;2022-07-29T11:05:11;22.40;99.90
15777;DHT22;7989;51.198;6.676;2022-07-29T11:07:40;22.40;99.90
15777;DHT22;7989;51.198;6.676;2022-07-29T11:10:26;22.20;99.90
15777;DHT22;7989;51.198;6.676;2022-07-29T11:12:53;22.50;99.90
15777;DHT22;7989;51.198;6.676;2022-07-29T11:15:21;22.50;99.90
15777;DHT22;7989;51.198;6.676;2022-07-29T11:18:08;22.60;99.90
15777;DHT22;7989;51.198;6.676;2022-07-29T11:20:41;22.70;99.90
15777;DHT22;7989;51.198;6.676;2022-07-29T11:23:24;23.10;99.90
15777;DHT22;7989;51.198;6.676;2022-07-29T11:26:13;23.60;99.90
15777;DHT22;7989;51.198;6.676;2022-07-29T11:28:51;23.90;99.90
15777;DHT22;7989;51.198;6.676;2022-07-29T11:31:32;24.10;99.90
15777;DHT22;7989;51.198;6.676;2022-07-29T11:34:17;24.40;99.90
15777;DHT22;7989;51.198;6.676;2022-07-29T11:37:17;24.50;99.90
15777;DHT22;7989;51.198;6.676;2022-07-29T11:39:46;24.70;99.90
15777;DHT22;7989;51.198;6.676;2022-07-29T11:42:38;24.70;99.90
15777;DHT22;7989;51.198;6.676;2022-07-29T11:45:08;24.60;99.90
15777;DHT22;7989;51.198;6.676;2022-07-29T11:47:39;24.50;99.90
15777;DHT22;7989;51.198;6.676;2022-07-29T11:50:08;24.40;99.90
15777;DHT22;7989;51.198;6.676;2022-07-29T11:52:38;24.50;99.90
15777;DHT22;7989;51.198;6.676;2022-07-29T11:55:11;24.40;99.90
15777;DHT22;7989;51.198;6.676;2022-07-29T11:57:46;24.20;99.90
15777;DHT22;7989;51.198;6.676;2022-07-29T12:00:22;23.90;99.90
15777;DHT22;7989;51.198;6.676;2022-07-29T12:02:49;23.70;99.90
15777;DHT22;7989;51.198;6.676;2022-07-29T12:05:16;23.50;99.90
15777;DHT22;7989;51.198;6.676;2022-07-29T12:07:45;23.60;99.90
15777;DHT22;7989;51.198;6.676;2022-07-29T12:10:12;23.40;99.90
15777;DHT22;7989;51.198;6.676;2022-07-29T12:12:39;23.30;99.90
15777;DHT22;7989;51.198;6.676;2022-07-29T12:15:14;23.90;99.90
15777;DHT22;7989;51.198;6.676;2022-07-29T12:17:43;24.50;99.90
15777;DHT22;7989;51.198;6.676;2022-07-29T12:20:10;25.20;99.90
15777;DHT22;7989;51.198;6.676;2022-07-29T12:22:40;25.50;99.90
15777;DHT22;7989;51.198;6.676;2022-07-29T12:25:12;25.50;99.90
15777;DHT22;7989;51.198;6.676;2022-07-29T12:27:42;25.30;99.90
15777;DHT22;7989;51.198;6.676;2022-07-29T12:30:11;25.20;99.90
15777;DHT22;7989;51.198;6.676;2022-07-29T12:32:40;25.70;99.90
15777;DHT22;7989;51.198;6.676;2022-07-29T12:35:09;25.50;99.90
15777;DHT22;7989;51.198;6.676;2022-07-29T12:37:38;25.70;99.90
15777;DHT22;7989;51.198;6.676;2022-07-29T12:40:06;25.50;99.90
15777;DHT22;7989;51.198;6.676;2022-07-29T12:42:35;25.70;99.90
15777;DHT22;7989;51.198;6.676;2022-07-29T12:45:04;26.00;99.90
15777;DHT22;7989;51.198;6.676;2022-07-29T12:47:31;26.60;99.90
15777;DHT22;7989;51.198;6.676;2022-07-29T12:50:09;26.60;99.90
15777;DHT22;7989;51.198;6.676;2022-07-29T12:52:36;26.80;99.90
15777;DHT22;7989;51.198;6.676;2022-07-29T12:55:04;26.70;99.90
15777;DHT22;7989;51.198;6.676;2022-07-29T12:57:31;26.70;99.90
15777;DHT22;7989;51.198;6.676;2022-07-29T13:00:04;26.90;99.90
15777;DHT22;7989;51.198;6.676;2022-07-29T13:02:33;26.70;99.90
15777;DHT22;7989;51.198;6.676;2022-07-29T13:05:01;26.80;99.90
15777;DHT22;7989;51.198;6.676;2022-07-29T13:07:31;27.10;99.90
15777;DHT22;7989;51.198;6.676;2022-07-29T13:10:11;27.10;99.90
15777;DHT22;7989;51.198;6.676;2022-07-29T13:12:38;27.40;99.90
15777;DHT22;7989;51.198;6.676;2022-07-29T13:15:14;27.60;99.90
15777;DHT22;7989;51.198;6.676;2022-07-29T13:17:42;27.90;99.90
15777;DHT22;7989;51.198;6.676;2022-07-29T13:20:11;27.10;99.90
15777;DHT22;7989;51.198;6.676;2022-07-29T13:22:40;26.90;99.90
15777;DHT22;7989;51.198;6.676;2022-07-29T13:25:08;27.30;99.90
15777;DHT22;7989;51.198;6.676;2022-07-29T13:27:37;27.60;99.90
15777;DHT22;7989;51.198;6.676;2022-07-29T13:30:07;27.90;99.90
15777;DHT22;7989;51.198;6.676;2022-07-29T13:32:36;27.90;99.90
15777;DHT22;7989;51.198;6.676;2022-07-29T13:35:05;27.20;99.90
15777;DHT22;7989;51.198;6.676;2022-07-29T13:37:32;27.80;99.90
15777;DHT22;7989;51.198;6.676;2022-07-29T13:40:00;27.90;99.90
15777;DHT22;7989;51.198;6.676;2022-07-29T13:42:28;28.00;99.90
15777;DHT22;7989;51.198;6.676;2022-07-29T13:44:55;27.60;99.90
15777;DHT22;7989;51.198;6.676;2022-07-29T13:47:22;27.60;99.90
15777;DHT22;7989;51.198;6.676;2022-07-29T13:49:50;26.80;99.90
15777;DHT22;7989;51.198;6.676;2022-07-29T13:52:19;26.40;99.90
15777;DHT22;7989;51.198;6.676;2022-07-29T13:54:46;26.40;99.90
15777;DHT22;7989;51.198;6.676;2022-07-29T13:57:13;26.80;99.90
15777;DHT22;7989;51.198;6.676;2022-07-29T13:59:41;27.30;99.90
15777;DHT22;7989;51.198;6.676;2022-07-29T14:02:09;27.20;99.90
15777;DHT22;7989;51.198;6.676;2022-07-29T14:04:36;26.80;99.90
15777;DHT22;7989;51.198;6.676;2022-07-29T14:07:04;27.20;99.90
15777;DHT22;7989;51.198;6.676;2022-07-29T14:09:31;26.70;99.90
15777;DHT22;7989;51.198;6.676;2022-07-29T14:11:58;26.50;99.90
15777;DHT22;7989;51.198;6.676;2022-07-29T14:14:24;26.70;99.90
15777;DHT22;7989;51.198;6.676;2022-07-29T14:16:51;26.80;99.90
15777;DHT22;7989;51.198;6.676;2022-07-29T14:19:18;27.20;99.90
15777;DHT22;7989;51.198;6.676;2022-07-29T14:21:45;27.20;99.90
15777;DHT22;7989;51.198;6.676;2022-07-29T14:24:13;26.80;99.90
15777;DHT22;7989;51.198;6.676;2022-07-29T14:26:40;26.70;99.90
15777;DHT22;7989;51.198;6.676;2022-07-29T14:29:07;26.10;99.90
15777;DHT22;7989;51.198;6.676;2022-07-29T14:31:34;26.30;99.90
15777;DHT22;7989;51.198;6.676;2022-07-29T14:34:01;26.10;99.90
15777;DHT22;7989;51.198;6.676;2022-07-29T14:36:28;26.00;99.90
15777;DHT22;7989;51.198;6.676;2022-07-29T14:38:54;25.80;99.90
15777;DHT22;7989;51.198;6.676;2022-07-29T14:41:23;26.20;99.90
15777;DHT22;7989;51.198;6.676;2022-07-29T14:43:49;26.30;99.90
15777;DHT22;7989;51.198;6.676;2022-07-29T14:46:18;26.50;99.90
15777;DHT22;7989;51.198;6.676;2022-07-29T14:48:45;26.70;99.90
15777;DHT22;7989;51.198;6.676;2022-07-29T14:51:12;26.70;99.90
15777;DHT22;7989;51.198;6.676;2022-07-29T14:53:39;26.60;99.90
15777;DHT22;7989;51.198;6.676;2022-07-29T14:56:05;26.40;99.90
15777;DHT22;7989;51.198;6.676;2022-07-29T14:58:34;26.40;99.90
15777;DHT22;7989;51.198;6.676;2022-07-29T15:01:00;26.60;99.90
15777;DHT22;7989;51.198;6.676;2022-07-29T15:03:27;26.70;99.90
15777;DHT22;7989;51.198;6.676;2022-07-29T15:05:54;26.70;99.90
15777;DHT22;7989;51.198;6.676;2022-07-29T15:08:21;26.40;99.90
15777;DHT22;7989;51.198;6.676;2022-07-29T15:10:48;26.40;99.90
15777;DHT22;7989;51.198;6.676;2022-07-29T15:13:15;26.10;99.90
15777;DHT22;7989;51.198;6.676;2022-07-29T15:15:43;25.80;99.90
15777;DHT22;7989;51.198;6.676;2022-07-29T15:18:10;25.70;99.90
15777;DHT22;7989;51.198;6.676;2022-07-29T15:20:37;25.50;99.90
15777;DHT22;7989;51.198;6.676;2022-07-29T15:23:04;25.70;99.90
15777;DHT22;7989;51.198;6.676;2022-07-29T15:25:35;25.90;99.90
15777;DHT22;7989;51.198;6.676;2022-07-29T15:28:02;26.10;99.90
15777;DHT22;7989;51.198;6.676;2022-07-29T15:30:33;25.80;99.90
15777;DHT22;7989;51.198;6.676;2022-07-29T15:33:03;25.60;99.90
15777;DHT22;7989;51.198;6.676;2022-07-29T15:35:29;25.40;99.90
15777;DHT22;7989;51.198;6.676;2022-07-29T15:37:56;25.30;99.90
15777;DHT22;7989;51.198;6.676;2022-07-29T15:40:23;25.30;99.90
15777;DHT22;7989;51.198;6.676;2022-07-29T15:42:50;25.50;99.90
15777;DHT22;7989;51.198;6.676;2022-07-29T15:45:17;25.70;99.90
15777;DHT22;7989;51.198;6.676;2022-07-29T15:47:44;25.80;99.90
15777;DHT22;7989;51.198;6.676;2022-07-29T15:50:12;25.50;99.90
15777;DHT22;7989;51.198;6.676;2022-07-29T15:52:41;25.30;99.90
15777;DHT22;7989;51.198;6.676;2022-07-29T15:55:08;25.20;99.90
15777;DHT22;7989;51.198;6.676;2022-07-29T15:57:35;25.40;99.90
15777;DHT22;7989;51.198;6.676;2022-07-29T16:00:03;25.50;99.90